Time;durP1;ratioP1;P1;durP2;ratioP2;P2;SDS_P1;SDS_P2;PMS_P1;PMS_P2;Temp;Humidity;BMP_temperature;BMP_pressure;BME280_temperature;BME280_humidity;BME280_pressure;Samples;Min_cycle;Max_cycle;Signal;HPM_P1;HPM_P2
2022/06/02 00:02:01;;;;;;;19.52;4.05;;;;;;;;;;5075323;28;20039;-63
2022/06/02 00:04:46;;;;;;;14.63;4.32;;;;;;;;;;5077544;28;20028;-63
2022/06/02 00:07:20;;;;;;;13.18;4.10;;;;;;;;;;5064701;28;20040;-63
2022/06/02 00:10:10;;;;;;;20.70;4.65;;;;;;;;;;5066322;28;20024;-63
2022/06/02 00:12:48;;;;;;;12.90;3.95;;;;;;;;;;5072847;28;20032;-63
2022/06/02 00:15:19;;;;;;;11.10;4.20;;;;;;;;;;5068259;28;20036;-62
2022/06/02 00:17:53;;;;;;;15.55;4.95;;;;;;;;;;5070544;28;20102;-63
2022/06/02 00:20:19;;;;;;;11.52;3.40;;;;;;;;;;5070142;28;20036;-62
2022/06/02 00:22:58;;;;;;;18.30;4.38;;;;;;;;;;5075608;28;20478;-63
2022/06/02 00:25:35;;;;;;;16.08;4.45;;;;;;;;;;5071267;28;20460;-62
2022/06/02 00:28:17;;;;;;;8.38;3.28;;;;;;;;;;5075209;28;20028;-63
2022/06/02 00:30:52;;;;;;;9.23;3.72;;;;;;;;;;5072939;28;20024;-63
2022/06/02 00:33:18;;;;;;;16.05;4.22;;;;;;;;;;5068856;28;20076;-62
2022/06/02 00:35:50;;;;;;;15.25;3.53;;;;;;;;;;5068461;28;20061;-63
2022/06/02 00:38:21;;;;;;;13.98;4.28;;;;;;;;;;5069929;28;20481;-63
2022/06/02 00:40:47;;;;;;;11.95;3.72;;;;;;;;;;5073864;28;20101;-63
2022/06/02 00:43:19;;;;;;;13.77;3.90;;;;;;;;;;5067817;28;20464;-62
2022/06/02 00:45:47;;;;;;;18.85;4.25;;;;;;;;;;5065713;28;20072;-63
2022/06/02 00:48:17;;;;;;;12.25;3.58;;;;;;;;;;5071125;28;20115;-62
2022/06/02 00:50:55;;;;;;;10.70;3.78;;;;;;;;;;5069606;28;20044;-63
2022/06/02 00:53:38;;;;;;;11.68;3.65;;;;;;;;;;5068994;28;20025;-63
2022/06/02 00:59:24;;;;;;;14.65;3.88;;;;;;;;;;5067825;28;20033;-62
2022/06/02 01:01:51;;;;;;;12.63;4.45;;;;;;;;;;5072438;28;20029;-62
2022/06/02 01:04:19;;;;;;;14.90;4.15;;;;;;;;;;5073231;28;20032;-63
2022/06/02 01:06:47;;;;;;;13.95;4.22;;;;;;;;;;5067239;28;20078;-62
2022/06/02 01:09:25;;;;;;;15.98;4.55;;;;;;;;;;5070959;28;20123;-62
2022/06/02 01:12:12;;;;;;;8.82;3.95;;;;;;;;;;5071506;28;20060;-62
2022/06/02 01:14:56;;;;;;;19.52;3.85;;;;;;;;;;5069362;28;20388;-62
2022/06/02 01:17:27;;;;;;;8.40;3.22;;;;;;;;;;5070742;28;20031;-62
2022/06/02 01:20:25;;;;;;;19.80;4.40;;;;;;;;;;5066860;28;20028;-63
2022/06/02 01:23:06;;;;;;;13.35;3.42;;;;;;;;;;5070381;28;20055;-63
2022/06/02 01:25:38;;;;;;;10.93;4.22;;;;;;;;;;5076436;28;20389;-62
2022/06/02 01:28:12;;;;;;;11.20;3.17;;;;;;;;;;5070585;28;20016;-63
2022/06/02 01:30:49;;;;;;;7.55;3.40;;;;;;;;;;5070133;28;20476;-63
2022/06/02 01:33:45;;;;;;;15.18;3.65;;;;;;;;;;5071829;28;20064;-62
2022/06/02 01:36:20;;;;;;;13.90;3.60;;;;;;;;;;5066188;28;20127;-62
2022/06/02 01:39:18;;;;;;;13.80;4.28;;;;;;;;;;5070650;28;20450;-62
2022/06/02 01:42:14;;;;;;;10.65;3.45;;;;;;;;;;5001811;28;20089;-62
2022/06/02 01:44:56;;;;;;;12.80;3.38;;;;;;;;;;5003991;28;20070;-62
2022/06/02 01:47:32;;;;;;;13.20;3.80;;;;;;;;;;5000891;28;20065;-62
2022/06/02 01:50:18;;;;;;;11.57;3.75;;;;;;;;;;4999430;28;20041;-62
2022/06/02 01:52:44;;;;;;;12.45;4.60;;;;;;;;;;5005651;28;20042;-62
2022/06/02 01:55:28;;;;;;;9.52;3.50;;;;;;;;;;5006977;28;20454;-61
2022/06/02 01:58:21;;;;;;;10.88;3.85;;;;;;;;;;5004955;28;20038;-62
2022/06/02 02:00:57;;;;;;;14.75;4.50;;;;;;;;;;5006976;28;20037;-62
2022/06/02 02:03:28;;;;;;;10.40;3.78;;;;;;;;;;5004970;28;20390;-62
2022/06/02 02:06:06;;;;;;;6.38;3.58;;;;;;;;;;5005885;28;20038;-62
2022/06/02 02:08:58;;;;;;;13.77;3.60;;;;;;;;;;5004769;28;20168;-62
2022/06/02 02:11:44;;;;;;;10.40;3.83;;;;;;;;;;5003459;28;20026;-62
2022/06/02 02:14:32;;;;;;;11.38;3.05;;;;;;;;;;5004094;28;20338;-62
2022/06/02 02:17:26;;;;;;;15.00;3.97;;;;;;;;;;5004131;28;20038;-62
2022/06/02 02:20:21;;;;;;;6.78;3.13;;;;;;;;;;4998878;28;20117;-62
2022/06/02 02:23:00;;;;;;;9.00;3.25;;;;;;;;;;4923422;29;20117;-62
2022/06/02 02:25:49;;;;;;;11.02;3.35;;;;;;;;;;4932040;29;20039;-62
2022/06/02 02:29:12;;;;;;;10.65;3.47;;;;;;;;;;4929785;29;20110;-62
2022/06/02 02:32:13;;;;;;;9.48;4.25;;;;;;;;;;4928636;29;20069;-62
2022/06/02 02:34:53;;;;;;;8.32;3.50;;;;;;;;;;4929561;29;20059;-63
2022/06/02 02:37:33;;;;;;;8.77;3.40;;;;;;;;;;4929382;29;20043;-62
2022/06/02 02:40:17;;;;;;;10.75;3.10;;;;;;;;;;4924482;29;20103;-62
2022/06/02 02:42:57;;;;;;;13.85;4.07;;;;;;;;;;4913684;29;20124;-62
2022/06/02 02:45:46;;;;;;;14.85;4.10;;;;;;;;;;4926997;29;20428;-63
2022/06/02 02:48:31;;;;;;;11.20;3.67;;;;;;;;;;4927085;29;20397;-62
2022/06/02 02:51:03;;;;;;;11.57;4.22;;;;;;;;;;4927821;29;20062;-63
2022/06/02 02:53:40;;;;;;;11.50;3.28;;;;;;;;;;4928337;29;20036;-62
2022/06/02 02:56:19;;;;;;;13.77;3.88;;;;;;;;;;4937780;28;20069;-62
2022/06/02 02:58:50;;;;;;;10.13;3.00;;;;;;;;;;4971763;28;20049;-63
2022/06/02 03:01:31;;;;;;;9.32;3.63;;;;;;;;;;4985040;28;20502;-62
2022/06/02 03:04:19;;;;;;;12.57;3.92;;;;;;;;;;5068700;28;20036;-62
2022/06/02 03:06:47;;;;;;;9.02;3.28;;;;;;;;;;5070789;28;20032;-62
2022/06/02 03:09:32;;;;;;;15.35;4.28;;;;;;;;;;5071932;28;20039;-62
2022/06/02 03:11:57;;;;;;;17.33;4.28;;;;;;;;;;5070693;28;20532;-62
2022/06/02 03:14:50;;;;;;;19.90;4.28;;;;;;;;;;5074741;28;20036;-62
2022/06/02 03:17:22;;;;;;;9.02;3.40;;;;;;;;;;5070738;28;20029;-62
2022/06/02 03:19:53;;;;;;;11.85;3.65;;;;;;;;;;5074085;28;20035;-62
2022/06/02 03:22:34;;;;;;;10.60;3.50;;;;;;;;;;5073662;28;20036;-62
2022/06/02 03:25:21;;;;;;;11.07;3.92;;;;;;;;;;5072936;28;20081;-62
2022/06/02 03:27:47;;;;;;;13.43;3.97;;;;;;;;;;5070775;28;20114;-62
2022/06/02 03:30:23;;;;;;;13.00;3.42;;;;;;;;;;5069390;28;20123;-63
2022/06/02 03:33:22;;;;;;;9.02;3.63;;;;;;;;;;5075360;28;20116;-62
2022/06/02 03:36:13;;;;;;;14.38;3.55;;;;;;;;;;5072026;28;20039;-62
2022/06/02 03:39:12;;;;;;;12.10;3.92;;;;;;;;;;5071169;28;20021;-62
2022/06/02 03:41:39;;;;;;;11.07;4.03;;;;;;;;;;5067537;28;20091;-62
2022/06/02 03:44:34;;;;;;;13.45;3.85;;;;;;;;;;5072915;28;20028;-62
2022/06/02 03:47:47;;;;;;;13.73;3.45;;;;;;;;;;5004233;28;20046;-62
2022/06/02 03:50:22;;;;;;;12.98;4.20;;;;;;;;;;4996955;28;20050;-62
2022/06/02 03:53:09;;;;;;;10.95;3.45;;;;;;;;;;5003923;28;20469;-62
2022/06/02 03:55:54;;;;;;;8.45;3.25;;;;;;;;;;5006815;28;20046;-62
2022/06/02 03:58:53;;;;;;;8.05;3.35;;;;;;;;;;5002426;28;20176;-63
2022/06/02 04:01:24;;;;;;;13.05;4.40;;;;;;;;;;5000893;28;20180;-62
2022/06/02 04:04:05;;;;;;;13.60;4.60;;;;;;;;;;5003239;28;20038;-61
2022/06/02 04:06:48;;;;;;;15.98;3.47;;;;;;;;;;5003550;28;20461;-62
2022/06/02 04:09:29;;;;;;;9.82;3.97;;;;;;;;;;5004297;28;20026;-62
2022/06/02 04:15:14;;;;;;;11.38;3.58;;;;;;;;;;4999906;28;20394;-62
2022/06/02 04:17:43;;;;;;;16.17;3.80;;;;;;;;;;5000870;28;20795;-62
2022/06/02 04:23:16;;;;;;;9.18;3.75;;;;;;;;;;5007802;28;20034;-62
2022/06/02 04:26:04;;;;;;;15.25;4.10;;;;;;;;;;5069272;28;20044;-62
2022/06/02 04:28:48;;;;;;;8.45;3.47;;;;;;;;;;5074845;28;20920;-61
2022/06/02 04:31:48;;;;;;;15.05;3.88;;;;;;;;;;5068751;28;20117;-62
2022/06/02 04:34:26;;;;;;;10.90;3.58;;;;;;;;;;5073614;28;20039;-62
2022/06/02 04:37:30;;;;;;;11.73;3.92;;;;;;;;;;5071461;28;20600;-62
2022/06/02 04:40:08;;;;;;;13.88;3.60;;;;;;;;;;5065679;28;20024;-62
2022/06/02 04:42:36;;;;;;;19.25;3.88;;;;;;;;;;5069155;28;20385;-62
2022/06/02 04:45:14;;;;;;;12.40;4.03;;;;;;;;;;5068805;28;20028;-62
2022/06/02 04:48:17;;;;;;;13.90;4.15;;;;;;;;;;5071778;28;20036;-62
2022/06/02 04:50:54;;;;;;;;;;;;;;;;;;5071584;28;20055;-62
2022/06/02 04:54:01;;;;;;;12.75;4.32;;;;;;;;;;5072329;28;19924;-62
2022/06/02 04:56:27;;;;;;;12.82;3.97;;;;;;;;;;5068344;28;20429;-64
2022/06/02 04:59:08;;;;;;;12.50;5.00;;;;;;;;;;5073795;28;20033;-62
2022/06/02 05:01:51;;;;;;;18.48;6.10;;;;;;;;;;5066522;28;20032;-62
2022/06/02 05:04:38;;;;;;;31.52;9.38;;;;;;;;;;5070848;28;20028;-64
2022/06/02 05:07:17;;;;;;;30.88;14.93;;;;;;;;;;5066683;28;20024;-62
2022/06/02 05:10:29;;;;;;;19.55;11.23;;;;;;;;;;5067304;28;20043;-62
2022/06/02 05:13:04;;;;;;;12.43;5.20;;;;;;;;;;5064573;28;20107;-62
2022/06/02 05:15:45;;;;;;;15.27;4.43;;;;;;;;;;5065800;28;20519;-62
2022/06/02 05:18:45;;;;;;;12.75;4.68;;;;;;;;;;5069015;28;20032;-62
2022/06/02 05:21:33;;;;;;;11.80;4.03;;;;;;;;;;4973778;28;20038;-62
2022/06/02 05:24:44;;;;;;;14.60;4.53;;;;;;;;;;4975412;28;20070;-63
2022/06/02 05:27:30;;;;;;;11.35;3.53;;;;;;;;;;4973249;28;20045;-62
2022/06/02 05:30:29;;;;;;;10.10;3.50;;;;;;;;;;4960366;28;20180;-63
2022/06/02 05:33:10;;;;;;;17.00;4.07;;;;;;;;;;4974791;28;20122;-62
2022/06/02 05:35:41;;;;;;;14.18;4.35;;;;;;;;;;4974153;28;20023;-62
2022/06/02 05:38:16;;;;;;;13.43;3.58;;;;;;;;;;4974029;28;20074;-62
2022/06/02 05:40:57;;;;;;;10.50;3.92;;;;;;;;;;4974224;28;20077;-62
2022/06/02 05:43:31;;;;;;;14.90;3.67;;;;;;;;;;4976373;28;20082;-62
2022/06/02 05:46:22;;;;;;;9.13;3.55;;;;;;;;;;4973440;28;20571;-61
2022/06/02 05:49:16;;;;;;;10.75;4.53;;;;;;;;;;4974094;28;20214;-62
2022/06/02 05:51:48;;;;;;;15.52;3.85;;;;;;;;;;4963223;28;20046;-62
2022/06/02 05:54:24;;;;;;;9.30;3.50;;;;;;;;;;4960226;28;20151;-62
2022/06/02 05:57:00;;;;;;;12.20;3.88;;;;;;;;;;4968792;28;20034;-61
2022/06/02 06:00:14;;;;;;;16.67;4.20;;;;;;;;;;5069201;28;20032;-61
2022/06/02 06:03:05;;;;;;;10.57;5.20;;;;;;;;;;5048415;28;20045;-61
2022/06/02 06:05:50;;;;;;;15.15;6.10;;;;;;;;;;5063064;28;20094;-61
2022/06/02 06:08:21;;;;;;;9.88;4.03;;;;;;;;;;5068563;28;20029;-61
2022/06/02 06:10:50;;;;;;;12.57;4.22;;;;;;;;;;5067820;28;20028;-62
2022/06/02 06:13:59;;;;;;;15.00;4.20;;;;;;;;;;5068501;28;20066;-61
2022/06/02 06:16:39;;;;;;;13.32;3.65;;;;;;;;;;4965864;28;20069;-61
2022/06/02 06:19:26;;;;;;;14.52;3.92;;;;;;;;;;4965416;28;20027;-61
2022/06/02 06:22:07;;;;;;;10.25;3.70;;;;;;;;;;4969539;28;20107;-61
2022/06/02 06:24:38;;;;;;;15.73;4.57;;;;;;;;;;4973971;28;20026;-60
2022/06/02 06:27:15;;;;;;;9.55;3.80;;;;;;;;;;4969223;28;20400;-61
2022/06/02 06:30:11;;;;;;;15.40;4.00;;;;;;;;;;4967507;28;20037;-61
2022/06/02 06:32:51;;;;;;;21.42;4.43;;;;;;;;;;4958267;28;20134;-61
2022/06/02 06:35:35;;;;;;;9.32;3.97;;;;;;;;;;4969365;28;20034;-61
2022/06/02 06:38:19;;;;;;;16.88;4.00;;;;;;;;;;4957330;28;20402;-61
2022/06/02 06:41:07;;;;;;;14.38;4.10;;;;;;;;;;4968445;28;20046;-61
2022/06/02 06:43:55;;;;;;;8.23;3.58;;;;;;;;;;4968871;28;20053;-61
2022/06/02 06:46:40;;;;;;;8.93;3.33;;;;;;;;;;4970855;28;20062;-61
2022/06/02 06:49:17;;;;;;;10.70;3.88;;;;;;;;;;4962910;28;20614;-62
2022/06/02 06:52:05;;;;;;;13.13;4.90;;;;;;;;;;4982593;28;20570;-62
2022/06/02 06:54:52;;;;;;;14.82;4.68;;;;;;;;;;5074188;28;20077;-61
2022/06/02 06:57:38;;;;;;;12.48;4.60;;;;;;;;;;5070054;28;20119;-61
2022/06/02 07:00:36;;;;;;;16.45;4.32;;;;;;;;;;5068815;28;20024;-61
2022/06/02 07:03:23;;;;;;;11.65;4.22;;;;;;;;;;5060356;28;20040;-61
2022/06/02 07:05:59;;;;;;;9.48;3.95;;;;;;;;;;5069927;28;20024;-61
2022/06/02 07:08:35;;;;;;;8.50;4.28;;;;;;;;;;5064556;28;20032;-61
2022/06/02 07:14:38;;;;;;;15.40;4.47;;;;;;;;;;4980155;28;20779;-61
2022/06/02 07:17:28;;;;;;;18.38;3.60;;;;;;;;;;4974145;28;20091;-61
2022/06/02 07:20:05;;;;;;;8.18;3.35;;;;;;;;;;4961804;28;22156;-62
2022/06/02 07:22:36;;;;;;;6.63;3.20;;;;;;;;;;4969870;28;20049;-62
2022/06/02 07:25:21;;;;;;;13.35;3.05;;;;;;;;;;4978752;28;20034;-62
2022/06/02 07:27:58;;;;;;;7.95;2.67;;;;;;;;;;4971344;28;20546;-62
2022/06/02 07:30:56;;;;;;;6.90;2.92;;;;;;;;;;4974528;28;20088;-62
2022/06/02 07:33:45;;;;;;;14.50;3.10;;;;;;;;;;4979088;28;20145;-61
2022/06/02 07:36:38;;;;;;;7.43;2.75;;;;;;;;;;4979197;28;20057;-62
2022/06/02 07:39:15;;;;;;;9.05;3.08;;;;;;;;;;4974877;28;20039;-61
2022/06/02 07:42:12;;;;;;;8.13;3.05;;;;;;;;;;4970888;28;20042;-61
2022/06/02 07:45:16;;;;;;;7.53;2.70;;;;;;;;;;4971597;28;20030;-61
2022/06/02 07:48:00;;;;;;;7.88;3.20;;;;;;;;;;4975624;28;20031;-62
2022/06/02 07:50:32;;;;;;;9.98;3.30;;;;;;;;;;5041268;28;20106;-61
2022/06/02 07:53:17;;;;;;;4.35;2.28;;;;;;;;;;5077849;28;20067;-61
2022/06/02 07:55:49;;;;;;;14.05;3.28;;;;;;;;;;5067063;28;20256;-61
2022/06/02 07:58:33;;;;;;;10.25;3.25;;;;;;;;;;5060632;28;20032;-61
2022/06/02 08:01:16;;;;;;;8.80;2.80;;;;;;;;;;5063638;28;20064;-61
2022/06/02 08:04:01;;;;;;;7.60;2.65;;;;;;;;;;5065035;28;20025;-61
2022/06/02 08:06:39;;;;;;;10.23;2.90;;;;;;;;;;5065558;28;20046;-62
2022/06/02 08:09:42;;;;;;;10.25;3.22;;;;;;;;;;5066317;28;20527;-62
2022/06/02 08:12:26;;;;;;;6.72;2.45;;;;;;;;;;5062654;28;20068;-62
2022/06/02 08:15:32;;;;;;;8.45;3.08;;;;;;;;;;5070402;28;20032;-62
2022/06/02 08:17:57;;;;;;;10.55;3.22;;;;;;;;;;5073151;28;20035;-61
2022/06/02 08:20:44;;;;;;;7.13;2.70;;;;;;;;;;5069768;28;20032;-62
2022/06/02 08:23:12;;;;;;;12.07;2.90;;;;;;;;;;5063852;28;20024;-59
2022/06/02 08:25:50;;;;;;;10.50;2.97;;;;;;;;;;5065949;28;20044;-62
2022/06/02 08:28:29;;;;;;;9.30;3.30;;;;;;;;;;5062302;28;20024;-62
2022/06/02 08:31:28;;;;;;;5.65;2.97;;;;;;;;;;5057706;28;20045;-63
2022/06/02 08:34:12;;;;;;;7.53;2.65;;;;;;;;;;5059332;28;20045;-63
2022/06/02 08:36:53;;;;;;;5.50;2.90;;;;;;;;;;5060119;28;20074;-62
2022/06/02 08:39:40;;;;;;;12.10;3.70;;;;;;;;;;5061286;28;20039;-62
2022/06/02 08:42:37;;;;;;;13.18;3.90;;;;;;;;;;5064230;28;20032;-62
2022/06/02 08:45:18;;;;;;;6.70;3.20;;;;;;;;;;5066846;28;20522;-63
2022/06/02 08:48:19;;;;;;;10.67;2.90;;;;;;;;;;5066713;28;20093;-63
2022/06/02 08:51:00;;;;;;;12.50;3.28;;;;;;;;;;4982889;28;20119;-62
2022/06/02 08:54:07;;;;;;;15.23;3.95;;;;;;;;;;4984783;28;20118;-63
2022/06/02 08:56:56;;;;;;;12.13;3.05;;;;;;;;;;4982266;28;20104;-61
2022/06/02 08:59:50;;;;;;;5.97;2.67;;;;;;;;;;4982031;28;20142;-63
2022/06/02 09:02:41;;;;;;;24.65;3.88;;;;;;;;;;4981274;28;20439;-62
2022/06/02 09:05:35;;;;;;;12.20;4.05;;;;;;;;;;4981069;28;20069;-62
2022/06/02 09:08:26;;;;;;;13.75;4.68;;;;;;;;;;4982355;28;20518;-63
2022/06/02 09:10:58;;;;;;;18.02;4.45;;;;;;;;;;4983262;28;20072;-63
2022/06/02 09:14:03;;;;;;;10.57;3.83;;;;;;;;;;4980578;28;20037;-63
2022/06/02 09:16:44;;;;;;;6.55;4.05;;;;;;;;;;4987382;28;20133;-63
2022/06/02 09:19:33;;;;;;;20.75;4.05;;;;;;;;;;4981912;28;20069;-63
2022/06/02 09:22:24;;;;;;;15.43;4.60;;;;;;;;;;4981857;28;20444;-62
2022/06/02 09:25:29;;;;;;;15.80;4.57;;;;;;;;;;4982829;28;20030;-63
2022/06/02 09:28:04;;;;;;;20.00;5.72;;;;;;;;;;5042038;28;20154;-63
2022/06/02 09:30:55;;;;;;;11.93;4.05;;;;;;;;;;5059104;28;20035;-63
2022/06/02 09:33:43;;;;;;;14.48;4.28;;;;;;;;;;5064698;28;20032;-63
2022/06/02 09:36:39;;;;;;;15.90;4.00;;;;;;;;;;5053193;28;22324;-63
2022/06/02 09:39:16;;;;;;;11.52;4.57;;;;;;;;;;5067441;28;20049;-63
2022/06/02 09:42:10;;;;;;;12.75;4.70;;;;;;;;;;5059624;28;20098;-63
2022/06/02 09:44:52;;;;;;;18.98;5.28;;;;;;;;;;5062751;28;20040;-62
2022/06/02 09:47:44;;;;;;;13.13;4.45;;;;;;;;;;5059939;28;20032;-63
2022/06/02 09:50:41;;;;;;;11.38;3.72;;;;;;;;;;5060448;28;20043;-63
2022/06/02 09:53:38;;;;;;;10.38;4.63;;;;;;;;;;5065140;28;20055;-63
2022/06/02 09:56:13;;;;;;;13.63;3.72;;;;;;;;;;5060325;28;20076;-62
2022/06/02 09:58:54;;;;;;;15.32;3.88;;;;;;;;;;5058128;28;20132;-63
2022/06/02 10:01:39;;;;;;;20.77;4.38;;;;;;;;;;5059359;28;20024;-63
2022/06/02 10:04:42;;;;;;;16.02;4.78;;;;;;;;;;5064947;28;20132;-63
2022/06/02 10:07:24;;;;;;;13.80;4.15;;;;;;;;;;5070656;28;20039;-63
2022/06/02 10:09:50;;;;;;;16.15;4.30;;;;;;;;;;5062203;28;20301;-62
2022/06/02 10:12:57;;;;;;;15.30;4.38;;;;;;;;;;5067517;28;20046;-63
2022/06/02 10:15:44;;;;;;;13.55;4.03;;;;;;;;;;5062145;28;20063;-63
2022/06/02 10:18:40;;;;;;;23.90;5.07;;;;;;;;;;5062499;28;20037;-63
2022/06/02 10:21:23;;;;;;;18.10;4.93;;;;;;;;;;5064882;28;20392;-63
2022/06/02 10:24:14;;;;;;;14.23;4.60;;;;;;;;;;5069891;28;20561;-63
2022/06/02 10:26:57;;;;;;;17.48;5.20;;;;;;;;;;5069661;28;20043;-63
2022/06/02 10:30:00;;;;;;;14.07;5.05;;;;;;;;;;5064978;28;20064;-63
2022/06/02 10:33:06;;;;;;;30.13;5.22;;;;;;;;;;5064507;28;20037;-63
2022/06/02 10:35:47;;;;;;;18.90;4.95;;;;;;;;;;5064263;28;21347;-64
2022/06/02 10:38:33;;;;;;;12.77;4.95;;;;;;;;;;5061740;28;20036;-63
2022/06/02 10:41:15;;;;;;;12.57;4.55;;;;;;;;;;5057743;28;20033;-63
2022/06/02 10:43:59;;;;;;;16.83;4.53;;;;;;;;;;5064871;28;20039;-63
2022/06/02 10:46:46;;;;;;;18.55;4.10;;;;;;;;;;5067157;28;20057;-62
2022/06/02 10:49:31;;;;;;;14.35;4.43;;;;;;;;;;5061717;28;20077;-62
2022/06/02 10:52:21;;;;;;;16.70;5.93;;;;;;;;;;5058230;28;20193;-63
2022/06/02 10:54:50;;;;;;;14.32;4.13;;;;;;;;;;5067717;28;20061;-63
2022/06/02 10:57:34;;;;;;;13.63;4.38;;;;;;;;;;5060842;28;20033;-63
2022/06/02 11:00:09;;;;;;;13.13;3.97;;;;;;;;;;5062544;28;20036;-63
2022/06/02 11:03:19;;;;;;;12.05;4.30;;;;;;;;;;5073331;28;20040;-63
2022/06/02 11:06:03;;;;;;;18.33;3.92;;;;;;;;;;5027098;28;20049;-62
2022/06/02 11:08:58;;;;;;;15.65;4.10;;;;;;;;;;5022159;28;20126;-62
2022/06/02 11:11:42;;;;;;;14.57;3.88;;;;;;;;;;5021705;28;20059;-63
2022/06/02 11:14:45;;;;;;;14.45;4.00;;;;;;;;;;5019375;28;20029;-63
2022/06/02 11:17:32;;;;;;;22.25;4.20;;;;;;;;;;5027960;28;20033;-59
2022/06/02 11:20:17;;;;;;;13.27;4.03;;;;;;;;;;5024453;28;20036;-63
2022/06/02 11:23:06;;;;;;;12.38;3.65;;;;;;;;;;5023855;28;20037;-62
2022/06/02 11:25:45;;;;;;;15.18;4.35;;;;;;;;;;5026563;28;20037;-63
2022/06/02 11:28:22;;;;;;;35.45;4.18;;;;;;;;;;5024892;28;20611;-63
2022/06/02 11:31:18;;;;;;;16.10;4.22;;;;;;;;;;5027062;28;20466;-62
2022/06/02 11:33:53;;;;;;;13.30;3.65;;;;;;;;;;5023186;28;20060;-63
2022/06/02 11:36:25;;;;;;;13.45;3.92;;;;;;;;;;5027961;28;20029;-63
2022/06/02 11:39:05;;;;;;;14.65;3.80;;;;;;;;;;5021058;28;20062;-63
2022/06/02 11:41:52;;;;;;;17.95;3.70;;;;;;;;;;5056002;28;20044;-63
2022/06/02 11:44:57;;;;;;;12.50;3.75;;;;;;;;;;5059569;28;20041;-63
2022/06/02 11:47:38;;;;;;;15.15;3.85;;;;;;;;;;5070132;28;20043;-63
2022/06/02 11:50:32;;;;;;;21.30;3.97;;;;;;;;;;5064748;28;20392;-63
2022/06/02 11:53:14;;;;;;;12.48;3.67;;;;;;;;;;5066834;28;20284;-63
2022/06/02 11:55:55;;;;;;;13.60;3.35;;;;;;;;;;5066845;28;20052;-64
2022/06/02 11:58:49;;;;;;;20.27;3.72;;;;;;;;;;5069933;28;20055;-63
2022/06/02 12:01:33;;;;;;;11.52;3.13;;;;;;;;;;5072742;28;20039;-63
2022/06/02 12:04:26;;;;;;;11.30;3.28;;;;;;;;;;5063714;28;20024;-63
2022/06/02 12:07:01;;;;;;;7.97;3.03;;;;;;;;;;5067154;28;20033;-63
2022/06/02 12:09:58;;;;;;;9.95;2.95;;;;;;;;;;5070844;28;20111;-63
2022/06/02 12:12:56;;;;;;;19.27;3.20;;;;;;;;;;5067469;28;20496;-64
2022/06/02 12:15:51;;;;;;;16.35;3.47;;;;;;;;;;5053338;28;20058;-64
2022/06/02 12:19:05;;;;;;;12.27;3.20;;;;;;;;;;5045900;28;20584;-63
2022/06/02 12:22:08;;;;;;;17.67;3.33;;;;;;;;;;5003614;28;20049;-64
2022/06/02 12:24:51;;;;;;;21.50;3.05;;;;;;;;;;5002045;28;20049;-59
2022/06/02 12:27:44;;;;;;;15.48;3.45;;;;;;;;;;5004566;28;20116;-63
2022/06/02 12:30:17;;;;;;;15.82;3.17;;;;;;;;;;5003992;28;20049;-63
2022/06/02 12:33:01;;;;;;;17.27;3.10;;;;;;;;;;5002161;28;22446;-63
2022/06/02 12:35:30;;;;;;;18.20;3.70;;;;;;;;;;5002621;28;20111;-63
2022/06/02 12:38:20;;;;;;;14.02;3.10;;;;;;;;;;5004547;28;20089;-63
2022/06/02 12:40:55;;;;;;;8.98;2.88;;;;;;;;;;5004780;28;20056;-63
2022/06/02 12:43:53;;;;;;;12.68;2.90;;;;;;;;;;5002604;28;20149;-64
2022/06/02 12:46:46;;;;;;;14.50;3.13;;;;;;;;;;5003876;28;20054;-64
2022/06/02 12:49:49;;;;;;;17.75;2.70;;;;;;;;;;5002980;28;20145;-63
2022/06/02 12:52:33;;;;;;;12.98;2.75;;;;;;;;;;5000519;28;20450;-63
2022/06/02 12:55:31;;;;;;;12.52;3.00;;;;;;;;;;5001341;28;20049;-64
2022/06/02 12:58:30;;;;;;;11.40;3.28;;;;;;;;;;5041138;28;20492;-63
2022/06/02 13:01:20;;;;;;;12.75;2.60;;;;;;;;;;4971044;28;20170;-63
2022/06/02 13:04:08;;;;;;;11.23;2.92;;;;;;;;;;4974168;28;20580;-62
2022/06/02 13:06:47;;;;;;;10.18;2.58;;;;;;;;;;4975719;28;20030;-62
2022/06/02 13:09:40;;;;;;;20.83;3.50;;;;;;;;;;4974550;28;20030;-63
2022/06/02 13:12:36;;;;;;;17.23;3.17;;;;;;;;;;4973264;28;20455;-63
2022/06/02 13:15:10;;;;;;;12.68;3.38;;;;;;;;;;4971653;28;20070;-63
2022/06/02 13:18:17;;;;;;;16.33;3.08;;;;;;;;;;4971257;28;20041;-63
2022/06/02 13:21:29;;;;;;;15.13;3.42;;;;;;;;;;4972355;28;20479;-64
2022/06/02 13:24:19;;;;;;;11.32;2.63;;;;;;;;;;4971840;28;20703;-63
2022/06/02 13:27:03;;;;;;;16.25;3.85;;;;;;;;;;4970992;28;20060;-64
2022/06/02 13:29:47;;;;;;;13.52;2.95;;;;;;;;;;4969221;28;20053;-64
2022/06/02 13:32:42;;;;;;;11.00;3.40;;;;;;;;;;4963227;28;20161;-64
2022/06/02 13:35:35;;;;;;;12.70;3.47;;;;;;;;;;4936346;29;20471;-63
2022/06/02 13:38:28;;;;;;;19.80;3.22;;;;;;;;;;5012678;28;20038;-63
2022/06/02 13:41:15;;;;;;;9.82;2.63;;;;;;;;;;5012296;28;20092;-64
2022/06/02 13:43:47;;;;;;;11.93;3.38;;;;;;;;;;5011428;28;20108;-63
2022/06/02 13:46:15;;;;;;;10.57;3.60;;;;;;;;;;5011924;28;20076;-63
2022/06/02 13:49:20;;;;;;;20.00;3.45;;;;;;;;;;5012857;28;20534;-64
2022/06/02 13:52:00;;;;;;;6.70;2.63;;;;;;;;;;5015474;28;20486;-63
2022/06/02 13:57:44;;;;;;;9.73;3.40;;;;;;;;;;5008361;28;20575;-63
2022/06/02 14:00:50;;;;;;;13.23;2.85;;;;;;;;;;5008340;28;20036;-64
2022/06/02 14:03:43;;;;;;;12.65;3.05;;;;;;;;;;5012670;28;20042;-63
2022/06/02 14:06:17;;;;;;;15.75;3.10;;;;;;;;;;5009955;28;20124;-64
2022/06/02 14:08:54;;;;;;;14.32;3.13;;;;;;;;;;5008419;28;20458;-63
2022/06/02 14:12:07;;;;;;;13.45;2.38;;;;;;;;;;5029650;28;20053;-64
2022/06/02 14:14:45;;;;;;;11.93;3.15;;;;;;;;;;4988071;28;20034;-64
2022/06/02 14:17:33;;;;;;;9.40;2.83;;;;;;;;;;4989523;28;20049;-62
2022/06/02 14:20:08;;;;;;;10.82;2.60;;;;;;;;;;4988676;28;20472;-62
2022/06/02 14:23:04;;;;;;;7.80;2.30;;;;;;;;;;4990500;28;20084;-63
2022/06/02 14:25:58;;;;;;;11.10;2.50;;;;;;;;;;4988167;28;20088;-65
2022/06/02 14:29:01;;;;;;;5.78;2.55;;;;;;;;;;4987491;28;20038;-64
2022/06/02 14:32:04;;;;;;;10.23;2.70;;;;;;;;;;4989625;28;20022;-64
2022/06/02 14:34:41;;;;;;;8.65;2.83;;;;;;;;;;4970082;28;20030;-64
2022/06/02 14:37:51;;;;;;;9.02;2.42;;;;;;;;;;4985200;28;20026;-63
2022/06/02 14:40:29;;;;;;;6.05;2.35;;;;;;;;;;4930462;29;20123;-63
2022/06/02 14:43:31;;;;;;;8.57;2.15;;;;;;;;;;4927743;29;20047;-63
2022/06/02 14:46:31;;;;;;;7.05;2.50;;;;;;;;;;4930433;29;20496;-63
2022/06/02 14:49:16;;;;;;;9.70;2.50;;;;;;;;;;4968668;28;20062;-65
2022/06/02 14:51:51;;;;;;;12.38;2.45;;;;;;;;;;4986376;28;20082;-64
2022/06/02 14:54:19;;;;;;;8.00;2.70;;;;;;;;;;4983554;28;20089;-63
2022/06/02 14:57:09;;;;;;;5.75;2.20;;;;;;;;;;4986560;28;20081;-63
2022/06/02 15:00:00;;;;;;;10.00;2.45;;;;;;;;;;4985936;28;20077;-63
2022/06/02 15:02:39;;;;;;;9.02;2.50;;;;;;;;;;4983772;28;20092;-64
2022/06/02 15:05:08;;;;;;;13.57;2.50;;;;;;;;;;4984401;28;20100;-64
2022/06/02 15:07:49;;;;;;;7.65;2.10;;;;;;;;;;4985627;28;20030;-65
2022/06/02 15:10:40;;;;;;;12.07;2.13;;;;;;;;;;5002631;28;20036;-64
2022/06/02 15:13:15;;;;;;;14.88;2.30;;;;;;;;;;5076525;28;20041;-64
2022/06/02 15:16:07;;;;;;;9.95;2.40;;;;;;;;;;5069071;28;20051;-63
2022/06/02 15:19:01;;;;;;;9.82;2.50;;;;;;;;;;5067390;28;20031;-63
2022/06/02 15:21:39;;;;;;;7.15;2.65;;;;;;;;;;5075233;28;20027;-63
2022/06/02 15:24:23;;;;;;;9.57;2.65;;;;;;;;;;5071472;28;20028;-64
2022/06/02 15:27:38;;;;;;;9.20;2.05;;;;;;;;;;5071243;28;20032;-63
2022/06/02 15:30:22;;;;;;;5.70;2.20;;;;;;;;;;5026595;28;20091;-63
2022/06/02 15:33:11;;;;;;;8.32;2.28;;;;;;;;;;5015371;28;20045;-64
2022/06/02 15:35:36;;;;;;;11.13;2.80;;;;;;;;;;5027818;28;20041;-64
2022/06/02 15:38:02;;;;;;;11.88;2.38;;;;;;;;;;5022571;28;20521;-64
2022/06/02 15:40:55;;;;;;;12.43;2.08;;;;;;;;;;5026025;28;20090;-64
2022/06/02 15:43:36;;;;;;;3.55;2.50;;;;;;;;;;5024565;28;20409;-63
2022/06/02 15:46:29;;;;;;;11.10;2.95;;;;;;;;;;5024208;28;20047;-64
2022/06/02 15:49:19;;;;;;;12.07;3.15;;;;;;;;;;5021753;28;20112;-64
2022/06/02 15:52:21;;;;;;;13.88;2.97;;;;;;;;;;5025246;28;20489;-66
2022/06/02 15:55:24;;;;;;;10.23;2.80;;;;;;;;;;5024673;28;20121;-64
2022/06/02 15:58:08;;;;;;;8.32;2.58;;;;;;;;;;5024448;28;20025;-64
2022/06/02 16:00:52;;;;;;;7.30;2.63;;;;;;;;;;5021700;28;20041;-63
2022/06/02 16:03:54;;;;;;;7.72;2.40;;;;;;;;;;5023943;28;20641;-63
2022/06/02 16:06:41;;;;;;;6.35;2.72;;;;;;;;;;5031576;28;20066;-64
2022/06/02 16:13:16;;;;;;;10.40;2.67;;;;;;;;;;4953788;28;20206;-63
2022/06/02 16:16:08;;;;;;;12.88;2.97;;;;;;;;;;4956896;28;20054;-64
2022/06/02 16:18:59;;;;;;;8.85;3.22;;;;;;;;;;4958393;28;20399;-63
2022/06/02 16:21:43;;;;;;;8.43;2.42;;;;;;;;;;4954331;28;20050;-63
2022/06/02 16:24:23;;;;;;;6.32;2.67;;;;;;;;;;4953762;28;20063;-64
2022/06/02 16:26:56;;;;;;;8.48;2.97;;;;;;;;;;4957080;28;20054;-63
2022/06/02 16:29:48;;;;;;;5.75;2.70;;;;;;;;;;4955437;28;20030;-63
2022/06/02 16:32:20;;;;;;;;;;;;;;;;;;4961933;28;20121;-63
2022/06/02 16:34:51;;;;;;;5.22;2.35;;;;;;;;;;4966434;28;20407;-63
2022/06/02 16:38:05;;;;;;;11.98;2.85;;;;;;;;;;4950212;28;20041;-63
2022/06/02 16:41:15;;;;;;;7.35;2.90;;;;;;;;;;4903625;29;20043;-62